createdAt,value
2018-09-11T00:00:05.074Z,1.13
2018-09-11T00:02:31.096Z,1.30
2018-09-11T00:04:57.072Z,1.50
2018-09-11T00:07:23.097Z,1.40
2018-09-11T00:09:49.861Z,1.20
2018-09-11T00:12:16.691Z,1.70
2018-09-11T00:14:42.684Z,1.37
2018-09-11T00:17:09.474Z,1.03
2018-09-11T00:19:36.188Z,1.20
2018-09-11T00:22:02.212Z,1.20
2018-09-11T00:24:28.258Z,1.50
2018-09-11T00:26:54.237Z,1.50
2018-09-11T00:29:20.268Z,1.20
2018-09-11T00:31:46.232Z,1.63
2018-09-11T00:34:12.245Z,1.40
2018-09-11T00:36:38.281Z,1.27
2018-09-11T00:39:04.996Z,1.37
2018-09-11T00:41:31.692Z,1.90
2018-09-11T00:43:58.407Z,1.37
2018-09-11T00:46:24.379Z,1.57
2018-09-11T00:48:50.443Z,1.30
2018-09-11T00:51:16.433Z,1.17
2018-09-11T00:53:42.384Z,1.60
2018-09-11T00:56:09.106Z,1.20
2018-09-11T00:58:35.043Z,1.33
2018-09-11T01:01:01.765Z,1.60
2018-09-11T01:03:27.727Z,1.73
2018-09-11T01:05:53.706Z,1.57
2018-09-11T01:08:19.668Z,1.40
2018-09-11T01:10:45.665Z,1.73
2018-09-11T01:13:11.612Z,1.57
2018-09-11T01:15:37.600Z,1.50
2018-09-11T01:18:03.598Z,1.50
2018-09-11T01:20:29.560Z,1.47
2018-09-11T01:22:55.556Z,1.60
2018-09-11T01:25:21.544Z,1.93
2018-09-11T01:27:47.535Z,1.80
2018-09-11T01:30:13.550Z,1.83
2018-09-11T01:32:39.522Z,2.20
2018-09-11T01:35:05.558Z,1.83
2018-09-11T01:37:31.569Z,1.70
2018-09-11T01:39:57.537Z,2.17
2018-09-11T01:42:23.525Z,1.87
2018-09-11T01:44:49.496Z,1.87
2018-09-11T01:47:15.491Z,1.80
2018-09-11T01:49:41.462Z,2.00
2018-09-11T01:52:07.456Z,1.53
2018-09-11T01:54:33.411Z,2.00
2018-09-11T01:56:59.432Z,1.97
2018-09-11T01:59:25.402Z,1.70
2018-09-11T02:01:52.169Z,1.77
2018-09-11T02:04:18.880Z,1.90
2018-09-11T02:06:44.858Z,1.37
2018-09-11T02:09:10.826Z,1.77
2018-09-11T02:11:36.830Z,1.63
2018-09-11T02:14:02.835Z,1.87
2018-09-11T02:16:28.812Z,1.90
2018-09-11T02:18:54.797Z,1.60
2018-09-11T02:21:20.753Z,1.80
2018-09-11T02:23:46.753Z,1.70
2018-09-11T02:26:12.721Z,1.87
2018-09-11T02:28:38.686Z,1.50
2018-09-11T02:31:04.636Z,1.53
2018-09-11T02:33:31.385Z,1.90
2018-09-11T02:35:57.358Z,1.70
2018-09-11T02:38:23.331Z,1.70
2018-09-11T02:40:49.277Z,1.90
2018-09-11T02:43:16.013Z,1.77
2018-09-11T02:45:41.953Z,2.10
2018-09-11T02:48:07.947Z,1.57
2018-09-11T02:50:33.885Z,1.70
2018-09-11T02:53:00.617Z,1.63
2018-09-11T02:55:26.609Z,1.73
2018-09-11T02:57:52.629Z,2.20
2018-09-11T03:00:18.601Z,1.90
2018-09-11T03:02:44.584Z,1.90
2018-09-11T03:05:10.588Z,1.67
2018-09-11T03:07:36.579Z,1.83
2018-09-11T03:10:03.315Z,2.00
2018-09-11T03:12:29.270Z,1.93
2018-09-11T03:14:55.275Z,2.47
2018-09-11T03:17:21.239Z,2.57
2018-09-11T03:19:47.251Z,1.73
2018-09-11T03:22:13.221Z,2.10
2018-09-11T03:24:39.231Z,2.13
2018-09-11T03:27:05.231Z,2.40
2018-09-11T03:29:31.188Z,2.00
2018-09-11T03:31:57.911Z,2.20
2018-09-11T03:34:23.872Z,1.93
2018-09-11T03:36:49.861Z,2.43
2018-09-11T03:39:15.843Z,2.20
2018-09-11T03:41:41.861Z,2.17
2018-09-11T03:44:07.816Z,2.33
2018-09-11T03:46:33.833Z,2.50
2018-09-11T03:48:59.793Z,2.47
2018-09-11T03:51:26.532Z,2.40
2018-09-11T03:53:53.243Z,2.67
2018-09-11T03:56:19.241Z,2.60
2018-09-11T03:58:45.193Z,3.10
2018-09-11T04:01:11.133Z,2.67
2018-09-11T04:03:37.110Z,2.60
2018-09-11T04:06:03.051Z,2.70
2018-09-11T04:08:29.047Z,2.63
2018-09-11T04:10:55.033Z,2.83
2018-09-11T04:13:21.016Z,3.20
2018-09-11T04:15:46.998Z,3.33
2018-09-11T04:18:12.974Z,3.13
2018-09-11T04:20:38.947Z,2.87
2018-09-11T04:23:05.057Z,3.07
2018-09-11T04:25:31.067Z,2.90
2018-09-11T04:27:57.042Z,3.30
2018-09-11T04:30:23.016Z,2.87
2018-09-11T04:32:49.012Z,3.33
2018-09-11T04:35:14.992Z,3.40
2018-09-11T04:37:41.007Z,3.40
2018-09-11T04:40:06.982Z,3.00
2018-09-11T04:42:32.997Z,3.40
2018-09-11T04:44:58.973Z,3.20
2018-09-11T04:47:24.975Z,3.57
2018-09-11T04:49:51.668Z,3.20
2018-09-11T04:52:17.677Z,3.70
2018-09-11T04:54:43.659Z,3.70
2018-09-11T04:57:09.700Z,3.63
2018-09-11T04:59:35.680Z,3.83
2018-09-11T05:02:01.636Z,3.20
2018-09-11T05:04:27.597Z,3.60
2018-09-11T05:06:54.288Z,3.70
2018-09-11T05:09:21.005Z,3.77
2018-09-11T05:11:46.954Z,3.20
2018-09-11T05:14:13.689Z,3.47
2018-09-11T05:16:39.727Z,4.03
2018-09-11T05:19:05.823Z,3.97
2018-09-11T05:21:32.449Z,4.00
2018-09-11T05:23:58.434Z,3.90
2018-09-11T05:26:24.426Z,3.50
2018-09-11T05:28:50.393Z,4.03
2018-09-11T05:31:17.152Z,3.90
2018-09-11T05:33:43.085Z,3.87
2018-09-11T05:36:09.071Z,3.87
2018-09-11T05:38:35.025Z,3.67
2018-09-11T05:41:01.014Z,3.97
2018-09-11T05:43:26.955Z,4.03
2018-09-11T05:45:52.909Z,3.90
2018-09-11T05:48:18.902Z,3.33
2018-09-11T05:50:44.888Z,3.80
2018-09-11T05:53:10.862Z,3.80
2018-09-11T05:55:36.805Z,3.97
2018-09-11T05:58:02.772Z,3.93
2018-09-11T06:00:28.756Z,3.30
2018-09-11T06:02:55.479Z,3.47
2018-09-11T06:05:21.473Z,4.10
2018-09-11T06:07:47.437Z,3.70
2018-09-11T06:10:13.433Z,4.00
2018-09-11T06:12:39.399Z,4.00
2018-09-11T06:15:06.148Z,4.17
2018-09-11T06:17:32.840Z,4.47
2018-09-11T06:19:58.841Z,3.90
2018-09-11T06:22:24.803Z,4.10
2018-09-11T06:24:50.831Z,4.20
2018-09-11T06:27:16.784Z,3.83
2018-09-11T06:29:42.757Z,4.10
2018-09-11T06:32:08.727Z,4.10
2018-09-11T06:34:35.425Z,4.20
2018-09-11T06:37:01.396Z,4.63
2018-09-11T06:39:27.338Z,4.67
2018-09-11T06:41:53.341Z,4.80
2018-09-11T06:44:19.298Z,4.53
2018-09-11T06:46:45.281Z,4.23
2018-09-11T06:49:11.974Z,4.53
2018-09-11T06:51:38.768Z,4.70
2018-09-11T06:54:04.724Z,4.00
2018-09-11T06:56:30.656Z,4.30
2018-09-11T06:58:56.703Z,4.30
2018-09-11T07:01:22.600Z,3.93
2018-09-11T07:03:48.601Z,4.30
2018-09-11T07:06:14.567Z,4.67
2018-09-11T07:08:40.529Z,4.23
2018-09-11T07:11:06.563Z,4.23
2018-09-11T07:13:32.577Z,4.93
2018-09-11T07:15:58.547Z,4.20
2018-09-11T07:18:24.476Z,4.37
2018-09-11T07:20:50.475Z,4.33
2018-09-11T07:23:16.415Z,4.43
2018-09-11T07:25:42.368Z,4.37
2018-09-11T07:28:09.057Z,4.47
2018-09-11T07:30:35.033Z,4.77
2018-09-11T07:33:01.719Z,4.40
2018-09-11T07:35:27.698Z,4.40
2018-09-11T07:37:53.729Z,4.70
2018-09-11T07:40:19.694Z,4.40
2018-09-11T07:42:45.649Z,4.43
2018-09-11T07:45:12.387Z,5.07
2018-09-11T07:47:38.337Z,4.93
2018-09-11T07:50:04.338Z,4.67
2018-09-11T07:52:30.406Z,5.03
2018-09-11T07:54:56.308Z,4.97
2018-09-11T07:57:22.293Z,4.83
2018-09-11T07:59:48.237Z,4.50
2018-09-11T08:02:14.974Z,4.60
2018-09-11T08:04:41.682Z,5.17
2018-09-11T08:07:07.702Z,5.40
2018-09-11T08:09:33.692Z,5.03
2018-09-11T08:11:59.696Z,4.87
2018-09-11T08:14:25.677Z,4.50
2018-09-11T08:16:51.664Z,5.27
2018-09-11T08:19:17.632Z,4.63
2018-09-11T08:21:43.654Z,4.43
2018-09-11T08:24:09.630Z,4.63
2018-09-11T08:26:35.622Z,4.70
2018-09-11T08:29:02.383Z,4.93
2018-09-11T08:31:28.373Z,4.90
2018-09-11T08:33:54.330Z,4.10
2018-09-11T08:36:21.044Z,4.03
2018-09-11T08:38:47.022Z,4.63
2018-09-11T08:41:12.991Z,4.77
2018-09-11T08:43:39.000Z,4.47
2018-09-11T08:46:04.942Z,4.60
2018-09-11T08:48:30.924Z,4.70
2018-09-11T08:50:56.882Z,4.30
2018-09-11T08:53:23.642Z,4.80
2018-09-11T08:55:50.341Z,5.07
2018-09-11T08:58:16.339Z,4.50
2018-09-11T09:00:42.280Z,4.07
2018-09-11T09:03:08.313Z,3.50
2018-09-11T09:05:34.280Z,4.27
2018-09-11T09:08:00.293Z,4.13
2018-09-11T09:10:26.251Z,3.43
2018-09-11T09:12:52.219Z,4.13
2018-09-11T09:15:18.216Z,3.87
2018-09-11T09:17:44.175Z,4.07
2018-09-11T09:20:10.911Z,3.83
2018-09-11T09:22:36.901Z,3.60
2018-09-11T09:25:09.877Z,3.43
2018-09-11T09:27:35.865Z,4.03
2018-09-11T09:30:02.590Z,3.93
2018-09-11T09:32:29.327Z,4.00
2018-09-11T09:34:56.088Z,3.60
2018-09-11T09:37:22.829Z,4.03
2018-09-11T09:39:48.852Z,4.13
2018-09-11T09:42:14.831Z,4.10
2018-09-11T09:44:40.788Z,5.03
2018-09-11T09:47:07.516Z,3.87
2018-09-11T09:49:33.469Z,3.97
2018-09-11T09:51:59.454Z,4.07
2018-09-11T09:54:25.414Z,4.10
2018-09-11T09:56:51.392Z,3.77
2018-09-11T09:59:17.362Z,4.07
2018-09-11T10:01:43.346Z,4.70
2018-09-11T10:04:09.307Z,4.10
2018-09-11T10:06:35.253Z,4.13
2018-09-11T10:09:01.247Z,4.07
2018-09-11T10:11:27.219Z,3.83
2018-09-11T10:13:53.216Z,4.00
2018-09-11T10:16:19.180Z,3.90
2018-09-11T10:18:45.925Z,3.43
2018-09-11T10:21:12.645Z,3.70
2018-09-11T10:23:38.631Z,3.23
2018-09-11T10:26:04.601Z,3.53
2018-09-11T10:28:30.606Z,3.83
2018-09-11T10:30:56.558Z,3.80
2018-09-11T10:33:23.302Z,3.93
2018-09-11T10:35:49.392Z,4.00
2018-09-11T10:38:15.323Z,3.77
2018-09-11T10:40:41.321Z,3.67
2018-09-11T10:43:07.287Z,3.67
2018-09-11T10:45:34.062Z,3.60
2018-09-11T10:48:00.017Z,3.40
2018-09-11T10:50:26.019Z,3.13
2018-09-11T10:52:52.011Z,3.63
2018-09-11T10:55:18.032Z,3.60
2018-09-11T10:57:44.026Z,3.37
2018-09-11T11:00:10.057Z,3.20
2018-09-11T11:02:36.020Z,3.63
2018-09-11T11:05:01.980Z,3.50
2018-09-11T11:07:27.986Z,3.80
2018-09-11T11:09:53.956Z,3.27
2018-09-11T11:12:20.722Z,3.50
2018-09-11T11:14:46.682Z,3.37
2018-09-11T11:17:12.754Z,3.10
2018-09-11T11:19:38.694Z,3.10
2018-09-11T11:22:05.416Z,2.63
2018-09-11T11:24:32.157Z,3.20
2018-09-11T11:26:58.184Z,3.10
2018-09-11T11:29:24.129Z,3.07
2018-09-11T11:31:50.086Z,3.00
2018-09-11T11:34:16.074Z,3.00
2018-09-11T11:36:42.169Z,2.93
2018-09-11T11:39:08.068Z,3.10
2018-09-11T11:41:34.051Z,2.93
2018-09-11T11:44:00.017Z,3.03
2018-09-11T11:46:26.022Z,2.70
2018-09-11T11:48:52.001Z,2.70
2018-09-11T11:51:18.743Z,3.40
2018-09-11T11:53:45.452Z,3.10
2018-09-11T11:56:11.440Z,2.97
2018-09-11T11:58:37.427Z,2.80
2018-09-11T12:01:04.125Z,2.83
2018-09-11T12:03:30.106Z,2.80
2018-09-11T12:05:56.116Z,2.70
2018-09-11T12:08:22.094Z,2.70
2018-09-11T12:10:48.223Z,3.10
2018-09-11T12:13:14.193Z,2.73
2018-09-11T12:15:40.168Z,2.70
2018-09-11T12:18:06.162Z,3.13
2018-09-11T12:20:32.148Z,2.77
2018-09-11T12:22:58.884Z,3.07
2018-09-11T12:25:25.662Z,2.90
2018-09-11T12:27:51.667Z,2.73
2018-09-11T12:30:17.645Z,3.03
2018-09-11T12:32:43.664Z,2.80
2018-09-11T12:35:09.638Z,3.00
2018-09-11T12:37:35.641Z,2.80
2018-09-11T12:40:01.585Z,2.47
2018-09-11T12:42:27.612Z,3.07
2018-09-11T12:44:53.563Z,3.00
2018-09-11T12:47:19.853Z,3.20
2018-09-11T12:49:45.544Z,2.70
2018-09-11T12:52:11.505Z,2.90
2018-09-11T12:54:37.482Z,2.97
2018-09-11T12:57:03.524Z,3.53
2018-09-11T12:59:29.487Z,3.40
2018-09-11T13:01:55.452Z,3.47
2018-09-11T13:04:21.439Z,3.20
2018-09-11T13:06:47.437Z,3.43
2018-09-11T13:09:13.475Z,3.13
2018-09-11T13:11:39.430Z,3.30
2018-09-11T13:14:05.505Z,3.47
2018-09-11T13:16:31.477Z,3.23
2018-09-11T13:18:57.477Z,3.37
2018-09-11T13:21:23.423Z,3.17
2018-09-11T13:23:49.419Z,3.13
2018-09-11T13:26:15.401Z,3.20
2018-09-11T13:28:42.122Z,3.30
2018-09-11T13:31:08.095Z,3.60
2018-09-11T13:33:34.081Z,3.90
2018-09-11T13:36:00.796Z,3.20
2018-09-11T13:38:26.823Z,3.23
2018-09-11T13:40:52.768Z,3.10
2018-09-11T13:43:19.517Z,3.63
2018-09-11T13:45:45.500Z,3.30
2018-09-11T13:48:11.504Z,3.80
2018-09-11T13:50:37.508Z,3.53
2018-09-11T13:53:03.545Z,4.10
2018-09-11T13:55:29.502Z,4.13
2018-09-11T13:57:55.467Z,4.40
2018-09-11T14:00:22.193Z,4.10
2018-09-11T14:02:48.902Z,4.03
2018-09-11T14:05:14.908Z,3.97
2018-09-11T14:07:40.890Z,3.73
2018-09-11T14:10:07.617Z,4.10
2018-09-11T14:12:34.343Z,3.77
2018-09-11T14:15:00.372Z,3.67
2018-09-11T14:17:26.329Z,3.63
2018-09-11T14:19:53.156Z,3.97
2018-09-11T14:22:19.834Z,3.90
2018-09-11T14:24:46.537Z,4.17
2018-09-11T14:27:12.536Z,3.80
2018-09-11T14:29:38.505Z,3.87
2018-09-11T14:32:04.502Z,3.83
2018-09-11T14:34:31.286Z,3.83
2018-09-11T14:36:57.953Z,3.07
2018-09-11T14:39:23.920Z,3.43
2018-09-11T14:41:49.894Z,3.23
2018-09-11T14:44:15.882Z,4.10
2018-09-11T14:46:41.893Z,3.80
2018-09-11T14:49:07.848Z,3.87
2018-09-11T14:51:33.810Z,3.50
2018-09-11T14:53:59.757Z,3.33
2018-09-11T14:56:26.466Z,3.60
2018-09-11T14:58:52.465Z,3.47
2018-09-11T15:01:18.426Z,3.30
2018-09-11T15:03:45.254Z,3.67
2018-09-11T15:06:11.235Z,3.73
2018-09-11T15:08:37.234Z,3.30
2018-09-11T15:11:03.231Z,3.77
2018-09-11T15:13:29.207Z,4.43
2018-09-11T15:15:55.178Z,3.83
2018-09-11T15:18:21.144Z,3.03
2018-09-11T15:20:47.126Z,3.53
2018-09-11T15:23:13.092Z,3.43
2018-09-11T15:25:39.102Z,3.20
2018-09-11T15:28:05.045Z,2.80
2018-09-11T15:30:31.122Z,3.23
2018-09-11T15:32:57.292Z,3.10
2018-09-11T15:35:24.970Z,2.90
2018-09-11T15:37:51.860Z,2.80
2018-09-11T15:40:17.815Z,2.70
2018-09-11T15:42:43.806Z,2.70
2018-09-11T15:45:10.507Z,2.30
2018-09-11T15:47:36.585Z,2.60
2018-09-11T15:50:02.554Z,2.90
2018-09-11T15:52:28.535Z,2.50
2018-09-11T15:54:54.541Z,2.80
2018-09-11T15:57:20.519Z,2.80
2018-09-11T15:59:46.507Z,2.93
2018-09-11T16:02:12.452Z,2.87
2018-09-11T16:04:38.475Z,2.90
2018-09-11T16:07:04.491Z,3.10
2018-09-11T16:09:30.539Z,2.60
2018-09-11T16:11:56.510Z,2.50
2018-09-11T16:14:22.480Z,2.47
2018-09-11T16:16:48.482Z,2.70
2018-09-11T16:19:15.199Z,2.63
2018-09-11T16:21:41.189Z,2.63
2018-09-11T16:24:07.151Z,2.30
2018-09-11T16:26:33.209Z,2.30
2018-09-11T16:28:59.175Z,2.40
2018-09-11T16:31:25.882Z,2.30
2018-09-11T16:33:51.868Z,2.57
2018-09-11T16:36:17.833Z,2.37
2018-09-11T16:38:43.828Z,2.23
2018-09-11T16:41:09.801Z,2.03
2018-09-11T16:43:35.766Z,2.00
2018-09-11T16:46:01.749Z,1.97
2018-09-11T16:48:27.765Z,2.03
2018-09-11T16:50:53.775Z,1.90
2018-09-11T16:53:19.741Z,1.80
2018-09-11T16:55:45.740Z,1.77
2018-09-11T16:58:11.688Z,2.03
2018-09-11T17:00:37.692Z,1.83
2018-09-11T17:03:03.666Z,1.87
2018-09-11T17:05:29.713Z,2.00
2018-09-11T17:07:55.684Z,2.00
2018-09-11T17:10:21.660Z,1.80
2018-09-11T17:12:47.630Z,1.63
2018-09-11T17:15:13.622Z,2.00
2018-09-11T17:17:39.646Z,2.00
2018-09-11T17:20:05.666Z,1.77
2018-09-11T17:22:31.591Z,2.00
2018-09-11T17:24:57.604Z,1.93
2018-09-11T17:27:23.555Z,2.10
2018-09-11T17:29:49.562Z,2.00
2018-09-11T17:32:16.295Z,2.00
2018-09-11T17:34:42.282Z,1.87
2018-09-11T17:37:08.282Z,2.00
2018-09-11T17:39:34.986Z,2.00
2018-09-11T17:42:01.734Z,1.70
2018-09-11T17:44:27.702Z,2.10
2018-09-11T17:46:54.749Z,2.00
2018-09-11T17:49:20.702Z,1.77
2018-09-11T17:51:46.709Z,1.87
2018-09-11T17:54:12.672Z,2.03
2018-09-11T17:56:39.420Z,1.60
2018-09-11T17:59:05.418Z,1.90
2018-09-11T18:01:31.385Z,2.03
2018-09-11T18:03:57.824Z,1.83
2018-09-11T18:06:23.795Z,2.00
2018-09-11T18:08:49.777Z,2.10
2018-09-11T18:11:15.756Z,1.70
2018-09-11T18:13:41.745Z,1.87
2018-09-11T18:16:07.709Z,2.00
2018-09-11T18:18:34.989Z,1.90
2018-09-11T18:21:00.952Z,2.20
2018-09-11T18:23:26.965Z,1.90
2018-09-11T18:25:52.950Z,1.70
2018-09-11T18:28:18.984Z,2.10
2018-09-11T18:30:44.980Z,1.80
2018-09-11T18:33:11.683Z,2.20
2018-09-11T18:35:37.673Z,2.40
2018-09-11T18:38:03.644Z,2.17
2018-09-11T18:40:29.639Z,2.30
2018-09-11T18:42:55.659Z,2.20
2018-09-11T18:45:22.426Z,2.03
2018-09-11T18:47:48.448Z,1.80
2018-09-11T18:50:14.414Z,2.23
2018-09-11T18:52:40.409Z,2.00
2018-09-11T18:55:06.372Z,2.10
2018-09-11T18:57:32.445Z,2.40
2018-09-11T18:59:58.375Z,2.50
2018-09-11T19:02:24.358Z,2.00
2018-09-11T19:04:50.333Z,2.20
2018-09-11T19:07:16.285Z,2.33
2018-09-11T19:09:42.275Z,2.53
2018-09-11T19:12:09.436Z,2.07
2018-09-11T19:14:35.468Z,1.97
2018-09-11T19:17:01.539Z,2.13
2018-09-11T19:19:27.551Z,2.13
2018-09-11T19:21:53.522Z,2.23
2018-09-11T19:24:19.480Z,2.07
2018-09-11T19:26:45.475Z,2.30
2018-09-11T19:29:11.438Z,2.13
2018-09-11T19:31:37.440Z,2.10
2018-09-11T19:34:04.181Z,2.20
2018-09-11T19:36:30.192Z,2.27
2018-09-11T19:38:56.165Z,2.27
2018-09-11T19:41:22.116Z,2.40
2018-09-11T19:43:48.123Z,2.50
2018-09-11T19:46:14.106Z,2.47
2018-09-11T19:48:40.096Z,2.00
2018-09-11T19:51:06.948Z,3.03
2018-09-11T19:53:33.666Z,2.20
2018-09-11T19:55:59.661Z,2.60
2018-09-11T19:58:25.761Z,2.53
2018-09-11T20:00:51.730Z,2.70
2018-09-11T20:03:18.450Z,2.10
2018-09-11T20:05:44.451Z,2.53
2018-09-11T20:08:10.414Z,2.53
2018-09-11T20:10:36.407Z,2.63
2018-09-11T20:13:02.349Z,2.47
2018-09-11T20:15:28.326Z,2.70
2018-09-11T20:17:54.337Z,2.40
2018-09-11T20:20:21.948Z,2.20
2018-09-11T20:22:47.927Z,3.00
2018-09-11T20:25:14.790Z,2.50
2018-09-11T20:27:41.472Z,2.40
2018-09-11T20:30:07.435Z,2.30
2018-09-11T20:32:33.468Z,2.33
2018-09-11T20:34:59.475Z,2.40
2018-09-11T20:37:26.245Z,2.47
2018-09-11T20:39:52.196Z,2.50
2018-09-11T20:42:18.360Z,2.53
2018-09-11T20:44:44.495Z,3.10
2018-09-11T20:47:10.504Z,2.33
2018-09-11T20:49:37.247Z,2.80
2018-09-11T20:52:03.261Z,2.57
2018-09-11T20:54:29.989Z,2.40
2018-09-11T20:56:55.960Z,2.97
2018-09-11T20:59:21.904Z,3.20
2018-09-11T21:01:47.994Z,2.93
2018-09-11T21:04:13.953Z,2.40
2018-09-11T21:06:39.882Z,3.07
2018-09-11T21:09:05.872Z,2.77
2018-09-11T21:11:32.561Z,3.33
2018-09-11T21:13:59.360Z,3.47
2018-09-11T21:16:25.307Z,2.93
2018-09-11T21:18:51.385Z,2.60
2018-09-11T21:21:17.427Z,3.23
2018-09-11T21:23:43.451Z,2.90
2018-09-11T21:26:09.398Z,2.73
2018-09-11T21:28:35.383Z,2.67
2018-09-11T21:31:02.067Z,2.70
2018-09-11T21:33:28.083Z,2.90
2018-09-11T21:35:54.265Z,2.67
2018-09-11T21:38:20.511Z,3.03
2018-09-11T21:40:46.518Z,3.33
2018-09-11T21:43:12.530Z,3.00
2018-09-11T21:45:38.561Z,2.83
2018-09-11T21:48:04.551Z,2.90
2018-09-11T21:50:30.551Z,2.90
2018-09-11T21:52:56.554Z,2.70
2018-09-11T21:55:22.670Z,2.40
2018-09-11T21:57:48.635Z,2.87
2018-09-11T22:00:14.653Z,2.90
2018-09-11T22:02:40.595Z,2.47
2018-09-11T22:05:06.597Z,2.90
2018-09-11T22:07:32.602Z,2.83
2018-09-11T22:09:58.573Z,2.97
2018-09-11T22:12:24.643Z,2.80
2018-09-11T22:14:50.670Z,2.57
2018-09-11T22:17:16.686Z,2.60
2018-09-11T22:19:43.404Z,2.60
2018-09-11T22:22:09.407Z,2.40
2018-09-11T22:24:35.414Z,2.40
2018-09-11T22:27:01.462Z,2.23
2018-09-11T22:29:27.549Z,2.33
2018-09-11T22:31:53.556Z,2.50
2018-09-11T22:34:19.504Z,2.47
2018-09-11T22:36:45.515Z,2.23
2018-09-11T22:39:11.508Z,2.10
2018-09-11T22:41:38.270Z,2.10
2018-09-11T22:44:04.948Z,1.63
2018-09-11T22:46:30.948Z,1.80
2018-09-11T22:48:56.934Z,1.50
2018-09-11T22:51:23.764Z,1.80
2018-09-11T22:53:50.469Z,1.50
2018-09-11T22:56:16.437Z,1.60
2018-09-11T22:58:43.170Z,1.53
2018-09-11T23:01:09.123Z,2.20
2018-09-11T23:03:35.100Z,2.47
2018-09-11T23:06:01.054Z,2.27
2018-09-11T23:08:27.800Z,2.60
2018-09-11T23:10:53.783Z,2.40
2018-09-11T23:13:19.859Z,2.10
2018-09-11T23:15:45.841Z,2.40
2018-09-11T23:18:11.824Z,2.50
2018-09-11T23:20:37.804Z,2.87
2018-09-11T23:23:03.778Z,2.80
2018-09-11T23:25:29.759Z,2.90
2018-09-11T23:27:55.708Z,3.10
2018-09-11T23:30:21.688Z,3.00
2018-09-11T23:32:47.655Z,3.03
2018-09-11T23:35:13.637Z,3.20
2018-09-11T23:37:39.570Z,2.80
2018-09-11T23:40:05.709Z,2.40
2018-09-11T23:42:31.653Z,2.70
2018-09-11T23:44:57.603Z,2.30
2018-09-11T23:47:23.595Z,2.73
2018-09-11T23:49:49.561Z,2.97
2018-09-11T23:52:15.640Z,2.77
2018-09-11T23:54:41.593Z,1.93
2018-09-11T23:57:07.575Z,2.10
2018-09-11T23:59:33.555Z,1.87
